Sylvania, GA (30467)

04:00 EDT le 01 avril 2015 (GMT -0400)
Plantation | | Change Station
CLOSE
Current Station
Aéroport
Location: Sylvania,
Altitude: 187 ft
Stations météo à proximité

Alt. 187 ft 32.65 °N, 81.60 °W | Updated 5 minutes ago

Pluie
Pluie
63 ° F
Paraît 63 ° F
N
7
Vent Variable Vent de OSO

Aujourd'hui
Haut(e) -- | Bas -- ° F
--% Risque de précip.
Hier
Haut(e) -- | Bas -- ° F
Precip. -- pouce
7:14 AM 7:46 PM
Lune gibbeuse croissante, 91% visible
Pression 29.95 pouce
Visibilité 10.0 Miles terrestres
Nuages Nuages épars 6500 ft
Nuageux 9000 ft
Couvert 11000 ft
Point de rosée 57 ° F
Humidité 80%
Précipitations 0.00 pouce
Profondeur de la couche neigeuse Non disponible.
UV 0 sur 12
Pollen 10.20 sur 12
Qualité de l'air Non disponible.
Flu Activity Non disponible.
METAR KJYL 010755Z AUTO 25006KT 10SM -TSRA SCT065 BKN090 OVC110 17/14 A2995 RMK AO2 LTG DSNT W AND NW T01730139

More Conditions Fewer Conditions

Pression 29.95 pouce
Visibilité 10.0 Miles terrestres
Nuages Nuages épars 6500 ft
Nuageux 9000 ft
Couvert 11000 ft
Point de rosée 57 ° F
Humidité 80%
Précipitations 0.00 pouce
Profondeur de la couche neigeuse Non disponible.
UV 0 sur 12
Pollen 10.20 sur 12
Qualité de l'air Non disponible.
Flu Activity Non disponible.
METAR KJYL 010755Z AUTO 25006KT 10SM -TSRA SCT065 BKN090 OVC110 17/14 A2995 RMK AO2 LTG DSNT W AND NW T01730139

More Conditions Fewer Conditions

10-Day Weather Forecast

Almanac

Astronomie

Apr. 01, 2015 Lever Coucher
Temps réel
Crépuscule civil
Crépuscule nautique
Crépuscule astronomique
Lune
Durée de lumière visible
Longueur du jour
Tomorrow will be .
, % of the Moon is Illuminated

Extrêmes aujourd'hui

State Highs State Lows

Community

WunderPhotos

Upload Photos

1,809,930 Photos téléchargées !

WunderBlogs® & News

Nearby

Qualité de l'air

  Qualité de l'air Indice de la qualité de l'air Polluant
Not available.

Épaisseur de neige

Station Depth Altitude

Activité sismique

Ville Distance Mag. Time & Date
Minimum magnitude displayed is 2.5.

Températures des eaux côtières

Lieu Température

Stations

Stations météo à proximité

Emplacement de la station Température Refroidissement éolien Point de rosée Humidité Vent Precip. Alt. Mise à jour Type